Portada
METAR-TAF:

METAR-TAF

Aeroports :

Aeroport de Luxemburg

Luxemburg, Luxemburg

latitud: 49-37N, longitud: 006-13E, altitud: 376 m

Observació

L'informe es va fer fa 15 minuts, a les 00:20 UTC
Vent 1 kt del Nord/Nord-Est
Temperatura 15°C
Humitat 94%
Pressió 1020 hPa
Visibilitat 10 km o més

METAR: ELLX 160020Z AUTO 03001KT 9999 NCD 15/14 Q1020 NOSIG

Hora: 02:35 (00:35 UTC)

Pronòstic

L'informe es va fer fa 1 hora i 35 minuts, a les 23:00 UTC
Pronòstic vàlid del 16 a les 00 UTC al 17 a les 06 UTC
Vent 3 kt amb direcció variable
Visibilitat 10 km o més
sense núvols per sota de 1500 mi sense presència de cumulonimbus.
Temporalment
l' 17 a les 04 UTC al 17 a les 06 UTC
Visibilitat: 7000 m
Cel ennuvolat a una alçada de 3000 ft
xàfecs de pluja

TAF: ELLX 152300Z 1600/1706 VRB03KT CAVOK TEMPO 1704/1706 7000 -SHRA BKN030

Observacions i pronòstics meteorològics de més de 4000 aeroports (METAR i TAF).

Les estacions disponibles són els punts grocs i vermells al mapa.

Posi el ratolí al punt desitjat per veure el nom de l'estació.

Feu clic per veure les observacions i els pronòstics meteorològics.

Per canviar el mapa: feu clic els botons verds amb una creu de color negre per apropar; al botó verd amb un guió per allunyar la imatge; o en les fletxes verdes per a mapes adjacents.


METAR-TAF: